Time,TemperatureF,DewpointF,PressureIn,WindDirection,WindDirectionDegrees,WindSpeedMPH,WindSpeedGustMPH,Humidity,HourlyPrecipIn,Conditions,Clouds,dailyrainin,SoftwareType,DateUTC
2013-03-06 00:04:00,19.9,11.1,30.36,West,269,2.0,9.2,68,0.00,,,-99.99,FreeWX 2.04,2013-03-06 06:04:00,
2013-03-06 00:09:00,19.8,10.9,30.36,West,281,1.0,6.7,68,0.00,,,-99.99,FreeWX 2.04,2013-03-06 06:09:00,
2013-03-06 00:14:00,19.8,10.9,30.36,WNW,285,2.0,5.8,68,0.00,,,-99.99,FreeWX 2.04,2013-03-06 06:14:00,
2013-03-06 00:19:00,19.8,10.9,30.36,WSW,258,2.0,7.4,68,0.00,,,-99.99,FreeWX 2.04,2013-03-06 06:19:00,
2013-03-06 00:24:00,19.8,10.9,30.36,SW,225,3.0,5.8,68,0.00,,,-99.99,FreeWX 2.04,2013-03-06 06:24:00,
2013-03-06 00:29:00,19.6,11.1,30.36,SW,219,3.0,6.3,69,0.00,,,-99.99,FreeWX 2.04,2013-03-06 06:29:00,
2013-03-06 00:34:00,19.6,10.8,30.36,SW,235,2.0,4.5,68,0.00,,,-99.99,FreeWX 2.04,2013-03-06 06:34:00,
2013-03-06 00:39:00,19.4,10.9,30.36,WSW,247,1.0,4.9,69,0.00,,,-99.99,FreeWX 2.04,2013-03-06 06:39:00,
2013-03-06 00:44:00,19.4,10.9,30.36,WSW,247,1.0,4.9,69,0.00,,,-99.99,FreeWX 2.04,2013-03-06 06:44:00,
2013-03-06 00:49:00,19.4,10.9,30.36,WSW,247,2.0,5.4,69,0.00,,,-99.99,FreeWX 2.04,2013-03-06 06:49:00,
2013-03-06 00:54:00,19.4,10.9,30.36,WSW,247,2.0,6.9,69,0.00,,,-99.99,FreeWX 2.04,2013-03-06 06:54:00,
2013-03-06 00:59:00,19.2,10.8,30.36,WSW,239,2.0,6.3,69,0.00,,,-99.99,FreeWX 2.04,2013-03-06 06:59:00,
2013-03-06 01:04:00,19.2,10.8,30.36,SW,232,2.0,5.8,69,0.00,,,-99.99,FreeWX 2.04,2013-03-06 07:04:00,
2013-03-06 01:09:00,19.2,10.8,30.36,SW,232,1.0,3.1,69,0.00,,,-99.99,FreeWX 2.04,2013-03-06 07:09:00,
2013-03-06 01:14:00,19.0,10.6,30.36,North,-999,0.0,2.7,69,0.00,,,-99.99,FreeWX 2.04,2013-03-06 07:14:00,
2013-03-06 01:19:00,19.0,10.6,30.36,North,-999,0.0,4.0,69,0.00,,,-99.99,FreeWX 2.04,2013-03-06 07:19:00,
2013-03-06 01:24:00,19.0,10.6,30.36,North,-999,0.0,3.1,69,0.00,,,-99.99,FreeWX 2.04,2013-03-06 07:24:00,
2013-03-06 01:29:00,19.0,10.9,30.36,North,-999,0.0,4.0,70,0.00,,,-99.99,FreeWX 2.04,2013-03-06 07:29:00,
2013-03-06 01:34:00,19.0,10.9,30.36,North,-999,0.0,4.0,70,0.00,,,-99.99,FreeWX 2.04,2013-03-06 07:34:00,
2013-03-06 01:39:00,18.9,10.8,30.36,North,-999,0.0,4.5,70,0.00,,,-99.99,FreeWX 2.04,2013-03-06 07:39:00,
2013-03-06 01:44:00,19.0,10.9,30.36,North,-999,0.0,4.5,70,0.00,,,-99.99,FreeWX 2.04,2013-03-06 07:44:00,
2013-03-06 01:49:00,19.0,10.9,30.36,SW,232,1.0,4.9,70,0.00,,,-99.99,FreeWX 2.04,2013-03-06 07:49:00,
2013-03-06 01:54:00,19.0,10.9,30.36,North,-999,0.0,3.6,70,0.00,,,-99.99,FreeWX 2.04,2013-03-06 07:54:00,
2013-03-06 01:59:00,19.0,10.9,30.36,SW,232,1.0,4.0,70,0.00,,,-99.99,FreeWX 2.04,2013-03-06 07:59:00,
2013-03-06 02:04:00,18.9,10.8,30.36,SW,231,2.0,4.5,70,0.00,,,-99.99,FreeWX 2.04,2013-03-06 08:04:00,
2013-03-06 02:09:00,18.9,11.1,30.36,SW,231,2.0,4.5,71,0.00,,,-99.99,FreeWX 2.04,2013-03-06 08:09:00,
2013-03-06 02:14:00,18.9,11.1,30.36,SW,231,2.0,4.9,71,0.00,,,-99.99,FreeWX 2.04,2013-03-06 08:14:00,
2013-03-06 02:19:00,18.9,11.1,30.36,SW,231,1.0,4.0,71,0.00,,,-99.99,FreeWX 2.04,2013-03-06 08:19:00,
2013-03-06 02:24:00,18.9,11.1,30.36,SW,225,1.0,6.3,71,0.00,,,-99.99,FreeWX 2.04,2013-03-06 08:24:00,
2013-03-06 02:29:00,18.9,11.1,30.36,SW,216,2.0,6.3,71,0.00,,,-99.99,FreeWX 2.04,2013-03-06 08:29:00,
2013-03-06 02:34:00,18.9,11.1,30.36,SW,214,1.0,4.0,71,0.00,,,-99.99,FreeWX 2.04,2013-03-06 08:34:00,
2013-03-06 02:39:00,18.9,11.1,30.36,North,-999,0.0,4.0,71,0.00,,,-99.99,FreeWX 2.04,2013-03-06 08:39:00,
2013-03-06 02:44:00,18.9,11.1,30.36,SW,229,2.0,6.9,71,0.00,,,-99.99,FreeWX 2.04,2013-03-06 08:44:00,
2013-03-06 02:49:00,18.7,10.6,30.36,WSW,240,2.0,4.9,70,0.00,,,-99.99,FreeWX 2.04,2013-03-06 08:49:00,
2013-03-06 02:54:00,18.5,10.8,30.36,WSW,244,3.0,7.4,71,0.00,,,-99.99,FreeWX 2.04,2013-03-06 08:54:00,
2013-03-06 02:59:00,18.3,10.2,30.36,West,268,3.0,6.3,70,0.00,,,-99.99,FreeWX 2.04,2013-03-06 08:59:00,
2013-03-06 03:04:00,18.1,10.0,30.36,West,279,2.0,6.3,70,0.00,,,-99.99,FreeWX 2.04,2013-03-06 09:04:00,
2013-03-06 03:09:00,18.1,10.0,30.36,West,262,2.0,9.2,70,0.00,,,-99.99,FreeWX 2.04,2013-03-06 09:09:00,
2013-03-06 03:14:00,18.1,10.4,30.36,WSW,245,2.0,5.8,71,0.00,,,-99.99,FreeWX 2.04,2013-03-06 09:14:00,
2013-03-06 03:19:00,18.1,10.4,30.36,WSW,246,2.0,6.3,71,0.00,,,-99.99,FreeWX 2.04,2013-03-06 09:19:00,
2013-03-06 03:24:00,18.1,10.4,30.36,WSW,249,1.0,6.3,71,0.00,,,-99.99,FreeWX 2.04,2013-03-06 09:24:00,
2013-03-06 03:29:00,18.3,10.6,30.36,North,-999,0.0,0.0,71,0.00,,,-99.99,FreeWX 2.04,2013-03-06 09:29:00,
2013-03-06 03:34:00,18.3,10.6,30.36,North,-999,0.0,6.3,71,0.00,,,-99.99,FreeWX 2.04,2013-03-06 09:34:00,
2013-03-06 03:39:00,18.3,10.6,30.36,WSW,250,1.0,3.6,71,0.00,,,-99.99,FreeWX 2.04,2013-03-06 09:39:00,
2013-03-06 03:44:00,18.3,10.6,30.36,WSW,250,1.0,3.6,71,0.00,,,-99.99,FreeWX 2.04,2013-03-06 09:44:00,
2013-03-06 03:49:00,18.3,10.6,30.36,North,-999,0.0,4.0,71,0.00,,,-99.99,FreeWX 2.04,2013-03-06 09:49:00,
2013-03-06 03:54:00,18.5,10.8,30.36,North,-999,0.0,4.5,71,0.00,,,-99.99,FreeWX 2.04,2013-03-06 09:54:00,
2013-03-06 03:59:00,18.5,10.8,30.36,WSW,250,1.0,4.5,71,0.00,,,-99.99,FreeWX 2.04,2013-03-06 09:59:00,
2013-03-06 04:04:00,18.3,10.2,30.36,WSW,250,1.0,4.5,70,0.00,,,-99.99,FreeWX 2.04,2013-03-06 10:04:00,
2013-03-06 04:09:00,18.3,10.2,30.36,North,-999,0.0,3.6,70,0.00,,,-99.99,FreeWX 2.04,2013-03-06 10:09:00,
2013-03-06 04:14:00,18.3,10.2,30.36,North,-999,0.0,4.9,70,0.00,,,-99.99,FreeWX 2.04,2013-03-06 10:14:00,
2013-03-06 04:19:00,18.5,10.4,30.36,North,-999,0.0,4.0,70,0.00,,,-99.99,FreeWX 2.04,2013-03-06 10:19:00,
2013-03-06 04:24:00,18.5,10.4,30.36,North,-999,0.0,3.1,70,0.00,,,-99.99,FreeWX 2.04,2013-03-06 10:24:00,
2013-03-06 04:29:00,18.5,10.4,30.36,North,-999,0.0,3.6,70,0.00,,,-99.99,FreeWX 2.04,2013-03-06 10:29:00,
2013-03-06 04:34:00,18.5,10.4,30.36,North,-999,0.0,0.0,70,0.00,,,-99.99,FreeWX 2.04,2013-03-06 10:34:00,
2013-03-06 04:39:00,18.5,10.4,30.36,North,-999,0.0,4.5,70,0.00,,,-99.99,FreeWX 2.04,2013-03-06 10:39:00,
2013-03-06 04:44:00,18.5,10.4,30.36,North,-999,0.0,3.1,70,0.00,,,-99.99,FreeWX 2.04,2013-03-06 10:44:00,
2013-03-06 04:49:00,18.5,10.4,30.36,North,-999,0.0,0.0,70,0.00,,,-99.99,FreeWX 2.04,2013-03-06 10:49:00,
2013-03-06 04:54:00,18.5,10.4,30.36,North,-999,0.0,4.0,70,0.00,,,-99.99,FreeWX 2.04,2013-03-06 10:54:00,
2013-03-06 04:59:00,18.5,10.4,30.36,North,-999,0.0,4.0,70,0.00,,,-99.99,FreeWX 2.04,2013-03-06 10:59:00,
2013-03-06 05:04:00,18.5,10.4,30.39,WSW,250,1.0,5.4,70,0.00,,,-99.99,FreeWX 2.04,2013-03-06 11:04:00,
2013-03-06 05:09:00,18.5,10.4,30.39,WSW,250,1.0,4.5,70,0.00,,,-99.99,FreeWX 2.04,2013-03-06 11:09:00,
2013-03-06 05:14:00,18.5,10.4,30.39,North,-999,0.0,5.4,70,0.00,,,-99.99,FreeWX 2.04,2013-03-06 11:14:00,
2013-03-06 05:19:00,18.5,10.4,30.39,WSW,250,1.0,4.5,70,0.00,,,-99.99,FreeWX 2.04,2013-03-06 11:19:00,
2013-03-06 05:24:00,18.5,10.4,30.39,WSW,250,2.0,5.8,70,0.00,,,-99.99,FreeWX 2.04,2013-03-06 11:24:00,
2013-03-06 05:29:00,18.5,10.4,30.39,WSW,250,1.0,5.8,70,0.00,,,-99.99,FreeWX 2.04,2013-03-06 11:29:00,
2013-03-06 05:34:00,18.5,10.4,30.39,WSW,250,2.0,5.4,70,0.00,,,-99.99,FreeWX 2.04,2013-03-06 11:34:00,
2013-03-06 05:39:00,18.5,10.4,30.39,WSW,250,1.0,4.5,70,0.00,,,-99.99,FreeWX 2.04,2013-03-06 11:39:00,
2013-03-06 05:44:00,18.3,9.9,30.39,West,262,2.0,6.9,69,0.00,,,-99.99,FreeWX 2.04,2013-03-06 11:44:00,
2013-03-06 05:49:00,18.1,9.7,30.39,West,275,2.0,6.3,69,0.00,,,-99.99,FreeWX 2.04,2013-03-06 11:49:00,
2013-03-06 05:54:00,18.0,9.5,30.39,West,274,2.0,4.9,69,0.00,,,-99.99,FreeWX 2.04,2013-03-06 11:54:00,
2013-03-06 05:59:00,18.0,9.5,30.39,West,273,1.0,4.9,69,0.00,,,-99.99,FreeWX 2.04,2013-03-06 11:59:00,
2013-03-06 06:04:00,18.0,9.9,30.39,West,274,2.0,5.8,70,0.00,,,-99.99,FreeWX 2.04,2013-03-06 12:04:00,
2013-03-06 06:09:00,17.8,9.7,30.39,West,270,2.0,7.8,70,0.00,,,-99.99,FreeWX 2.04,2013-03-06 12:09:00,
2013-03-06 06:14:00,17.6,9.5,30.39,West,261,2.0,5.8,70,0.00,,,-99.99,FreeWX 2.04,2013-03-06 12:14:00,
2013-03-06 06:19:00,17.6,9.5,30.39,West,259,2.0,6.9,70,0.00,,,-99.99,FreeWX 2.04,2013-03-06 12:19:00,
2013-03-06 06:24:00,17.6,9.5,30.39,West,259,2.0,5.4,70,0.00,,,-99.99,FreeWX 2.04,2013-03-06 12:24:00,
2013-03-06 06:29:00,17.6,9.9,30.39,WSW,258,2.0,5.8,71,0.00,,,-99.99,FreeWX 2.04,2013-03-06 12:29:00,
2013-03-06 06:34:00,17.6,9.9,30.39,WSW,258,1.0,0.0,71,0.00,,,-99.99,FreeWX 2.04,2013-03-06 12:34:00,
2013-03-06 06:39:00,17.6,9.9,30.39,North,-999,0.0,6.3,71,0.00,,,-99.99,FreeWX 2.04,2013-03-06 12:39:00,
2013-03-06 06:44:00,17.6,9.9,30.39,WSW,258,2.0,5.8,71,0.00,,,-99.99,FreeWX 2.04,2013-03-06 12:44:00,
2013-03-06 06:49:00,17.6,9.9,30.41,WSW,257,2.0,6.7,71,0.00,,,-99.99,FreeWX 2.04,2013-03-06 12:49:00,
2013-03-06 06:54:00,17.6,9.9,30.41,WSW,256,1.0,4.0,71,0.00,,,-99.99,FreeWX 2.04,2013-03-06 12:54:00,
2013-03-06 06:59:00,17.6,9.9,30.41,WSW,250,2.0,5.8,71,0.00,,,-99.99,FreeWX 2.04,2013-03-06 12:59:00,
2013-03-06 07:04:00,17.6,9.9,30.41,WSW,246,2.0,6.3,71,0.00,,,-99.99,FreeWX 2.04,2013-03-06 13:04:00,
2013-03-06 07:09:00,17.4,9.7,30.41,West,259,3.0,8.7,71,0.00,,,-99.99,FreeWX 2.04,2013-03-06 13:09:00,
2013-03-06 07:14:00,17.4,9.7,30.41,West,260,4.0,6.9,71,0.00,,,-99.99,FreeWX 2.04,2013-03-06 13:14:00,
2013-03-06 07:19:00,17.4,10.0,30.41,West,261,3.0,6.7,72,0.00,,,-99.99,FreeWX 2.04,2013-03-06 13:19:00,
2013-03-06 07:24:00,17.4,10.0,30.41,West,268,2.0,7.8,72,0.00,,,-99.99,FreeWX 2.04,2013-03-06 13:24:00,
2013-03-06 07:29:00,17.4,10.0,30.41,WSW,247,2.0,6.7,72,0.00,,,-99.99,FreeWX 2.04,2013-03-06 13:29:00,
2013-03-06 07:34:00,17.4,10.0,30.41,WSW,240,1.0,4.0,72,0.00,,,-99.99,FreeWX 2.04,2013-03-06 13:34:00,
2013-03-06 07:39:00,17.6,10.2,30.41,WSW,250,2.0,5.8,72,0.00,,,-99.99,FreeWX 2.04,2013-03-06 13:39:00,
2013-03-06 07:44:00,17.6,10.2,30.41,WSW,250,2.0,6.3,72,0.00,,,-99.99,FreeWX 2.04,2013-03-06 13:44:00,
2013-03-06 07:49:00,18.0,10.2,30.41,WSW,245,2.0,8.7,71,0.00,,,-99.99,FreeWX 2.04,2013-03-06 13:49:00,
2013-03-06 07:54:00,18.1,10.4,30.41,SW,232,1.0,5.8,71,0.00,,,-99.99,FreeWX 2.04,2013-03-06 13:54:00,
2013-03-06 07:59:00,18.3,10.6,30.41,SW,229,2.0,6.7,71,0.00,,,-99.99,FreeWX 2.04,2013-03-06 13:59:00,
2013-03-06 08:04:00,18.3,10.6,30.41,SW,236,2.0,5.8,71,0.00,,,-99.99,FreeWX 2.04,2013-03-06 14:04:00,
2013-03-06 08:09:00,18.3,10.2,30.41,WSW,237,2.0,4.9,70,0.00,,,-99.99,FreeWX 2.04,2013-03-06 14:09:00,
2013-03-06 08:14:00,18.3,9.9,30.41,WSW,248,3.0,8.7,69,0.00,,,-99.99,FreeWX 2.04,2013-03-06 14:14:00,
2013-03-06 08:19:00,18.3,9.5,30.41,WSW,238,4.0,8.7,68,0.00,,,-99.99,FreeWX 2.04,2013-03-06 14:19:00,
2013-03-06 08:24:00,18.3,9.5,30.41,WSW,237,3.0,6.9,68,0.00,,,-99.99,FreeWX 2.04,2013-03-06 14:24:00,
2013-03-06 08:29:00,18.3,9.1,30.41,West,278,3.0,7.8,67,0.00,,,-99.99,FreeWX 2.04,2013-03-06 14:29:00,
2013-03-06 08:34:00,18.3,9.0,30.41,WNW,298,4.0,7.4,66,0.00,,,-99.99,FreeWX 2.04,2013-03-06 14:34:00,
2013-03-06 08:39:00,18.5,9.1,30.41,WNW,282,4.0,7.4,66,0.00,,,-99.99,FreeWX 2.04,2013-03-06 14:39:00,
2013-03-06 08:44:00,18.7,9.3,30.41,West,271,3.0,6.9,66,0.00,,,-99.99,FreeWX 2.04,2013-03-06 14:44:00,
2013-03-06 08:49:00,19.0,9.5,30.41,West,270,3.0,6.9,66,0.00,,,-99.99,FreeWX 2.04,2013-03-06 14:49:00,
2013-03-06 08:54:00,19.2,9.7,30.41,WSW,257,3.0,10.5,66,0.00,,,-99.99,FreeWX 2.04,2013-03-06 14:54:00,
2013-03-06 08:59:00,19.2,9.5,30.41,West,261,3.0,6.3,65,0.00,,,-99.99,FreeWX 2.04,2013-03-06 14:59:00,
2013-03-06 09:04:00,19.4,9.3,30.41,WSW,258,3.0,7.8,64,0.00,,,-99.99,FreeWX 2.04,2013-03-06 15:04:00,
2013-03-06 09:09:00,19.4,9.3,30.41,West,260,4.0,8.3,64,0.00,,,-99.99,FreeWX 2.04,2013-03-06 15:09:00,
2013-03-06 09:14:00,19.4,9.0,30.41,West,259,4.0,7.8,63,0.00,,,-99.99,FreeWX 2.04,2013-03-06 15:14:00,
2013-03-06 09:19:00,19.6,9.1,30.41,WSW,242,4.0,7.4,63,0.00,,,-99.99,FreeWX 2.04,2013-03-06 15:19:00,
2013-03-06 09:24:00,19.8,9.0,30.41,West,265,3.0,6.7,62,0.00,,,-99.99,FreeWX 2.04,2013-03-06 15:24:00,
2013-03-06 09:29:00,20.1,9.5,30.41,West,279,3.0,6.9,63,0.00,,,-99.99,FreeWX 2.04,2013-03-06 15:29:00,
2013-03-06 09:34:00,20.5,9.5,30.41,WSW,249,4.0,8.3,62,0.00,,,-99.99,FreeWX 2.04,2013-03-06 15:34:00,
2013-03-06 09:39:00,20.5,8.8,30.41,WSW,243,4.0,6.9,60,0.00,,,-99.99,FreeWX 2.04,2013-03-06 15:39:00,
2013-03-06 09:49:00,21.0,9.0,30.41,WSW,248,4.0,5.4,59,0.00,,,-99.99,FreeWX 2.04,2013-03-06 15:49:00,
2013-03-06 09:54:00,21.2,8.8,30.41,WSW,239,3.0,9.6,58,0.00,,,-99.99,FreeWX 2.04,2013-03-06 15:54:00,
2013-03-06 09:59:00,21.4,9.0,30.41,SW,226,3.0,8.3,58,0.00,,,-99.99,FreeWX 2.04,2013-03-06 15:59:00,
2013-03-06 10:04:00,21.6,8.8,30.41,WSW,250,2.0,5.4,57,0.00,,,-99.99,FreeWX 2.04,2013-03-06 16:04:00,
2013-03-06 10:09:00,21.9,9.1,30.41,West,272,2.0,6.9,57,0.00,,,-99.99,FreeWX 2.04,2013-03-06 16:09:00,
2013-03-06 10:14:00,22.1,8.8,30.41,WSW,245,3.0,8.3,56,0.00,,,-99.99,FreeWX 2.04,2013-03-06 16:14:00,
2013-03-06 10:19:00,23.0,9.7,30.41,SW,230,4.0,9.2,56,0.00,,,-99.99,FreeWX 2.04,2013-03-06 16:19:00,
2013-03-06 10:24:00,23.5,10.2,30.41,SW,223,5.0,8.3,56,0.00,,,-99.99,FreeWX 2.04,2013-03-06 16:24:00,
2013-03-06 10:29:00,24.1,10.2,30.41,SSW,210,3.0,5.4,55,0.00,,,-99.99,FreeWX 2.04,2013-03-06 16:29:00,
2013-03-06 10:34:00,24.6,10.4,30.41,SSW,211,1.0,4.0,54,0.00,,,-99.99,FreeWX 2.04,2013-03-06 16:34:00,
2013-03-06 10:39:00,25.2,10.9,30.41,SSW,212,2.0,9.2,54,0.00,,,-99.99,FreeWX 2.04,2013-03-06 16:39:00,
2013-03-06 10:44:00,25.3,10.6,30.41,SW,216,4.0,7.4,53,0.00,,,-99.99,FreeWX 2.04,2013-03-06 16:44:00,
2013-03-06 10:49:00,25.2,10.0,30.41,SW,219,4.0,7.8,52,0.00,,,-99.99,FreeWX 2.04,2013-03-06 16:49:00,
2013-03-06 10:54:00,25.3,10.2,30.41,SSW,207,3.0,7.8,52,0.00,,,-99.99,FreeWX 2.04,2013-03-06 16:54:00,
2013-03-06 10:59:00,25.7,10.6,30.41,South,171,3.0,6.3,52,0.00,,,-99.99,FreeWX 2.04,2013-03-06 16:59:00,
2013-03-06 11:05:00,26.1,10.4,30.41,SSE,154,3.0,6.7,51,0.00,,,-99.99,FreeWX 2.04,2013-03-06 17:05:00,
2013-03-06 11:10:00,25.3,9.3,30.41,South,175,4.0,9.6,50,0.00,,,-99.99,FreeWX 2.04,2013-03-06 17:10:00,
2013-03-06 11:15:00,25.5,9.5,30.41,South,188,2.0,4.9,50,0.00,,,-99.99,FreeWX 2.04,2013-03-06 17:15:00,
2013-03-06 11:20:00,26.1,10.0,30.41,South,179,1.0,4.0,50,0.00,,,-99.99,FreeWX 2.04,2013-03-06 17:20:00,
2013-03-06 11:25:00,26.6,10.6,30.41,South,183,3.0,6.7,50,0.00,,,-99.99,FreeWX 2.04,2013-03-06 17:25:00,
2013-03-06 11:30:00,26.8,10.2,30.41,SSW,196,3.0,8.3,49,0.00,,,-99.99,FreeWX 2.04,2013-03-06 17:30:00,
2013-03-06 11:35:00,26.6,9.5,30.41,WSW,254,2.0,4.5,48,0.00,,,-99.99,FreeWX 2.04,2013-03-06 17:35:00,
2013-03-06 11:40:00,26.6,9.5,30.41,WNW,294,2.0,4.9,48,0.00,,,-99.99,FreeWX 2.04,2013-03-06 17:40:00,
2013-03-06 11:45:00,26.8,9.7,30.41,WNW,285,2.0,4.5,48,0.00,,,-99.99,FreeWX 2.04,2013-03-06 17:45:00,
2013-03-06 11:50:00,27.1,10.0,30.39,West,277,2.0,5.8,48,0.00,,,-99.99,FreeWX 2.04,2013-03-06 17:50:00,
2013-03-06 11:55:00,27.1,10.0,30.39,WSW,237,2.0,5.4,48,0.00,,,-99.99,FreeWX 2.04,2013-03-06 17:55:00,
2013-03-06 12:00:00,27.1,10.0,30.39,SSW,197,1.0,5.4,48,0.00,,,-99.99,FreeWX 2.04,2013-03-06 18:00:00,
2013-03-06 12:05:00,27.7,10.0,30.39,SSW,196,1.0,5.4,47,0.00,,,-99.99,FreeWX 2.04,2013-03-06 18:05:00,
2013-03-06 12:10:00,27.9,10.2,30.39,SSW,197,2.0,4.0,47,0.00,,,-99.99,FreeWX 2.04,2013-03-06 18:10:00,
2013-03-06 12:15:00,27.7,9.7,30.39,SSW,205,2.0,6.7,46,0.00,,,-99.99,FreeWX 2.04,2013-03-06 18:15:00,
2013-03-06 12:20:00,27.7,9.7,30.39,WSW,253,3.0,5.8,46,0.00,,,-99.99,FreeWX 2.04,2013-03-06 18:20:00,
2013-03-06 12:25:00,28.0,10.0,30.39,West,281,2.0,7.4,46,0.00,,,-99.99,FreeWX 2.04,2013-03-06 18:25:00,
2013-03-06 12:30:00,28.0,10.0,30.39,WSW,240,3.0,5.4,46,0.00,,,-99.99,FreeWX 2.04,2013-03-06 18:30:00,
2013-03-06 12:35:00,28.2,10.0,30.39,SSW,211,3.0,6.3,46,0.00,,,-99.99,FreeWX 2.04,2013-03-06 18:35:00,
2013-03-06 12:40:00,28.4,10.2,30.39,SSW,199,2.0,5.4,46,0.00,,,-99.99,FreeWX 2.04,2013-03-06 18:40:00,
2013-03-06 12:45:00,28.8,11.1,30.39,SSE,163,3.0,4.9,47,0.00,,,-99.99,FreeWX 2.04,2013-03-06 18:45:00,
2013-03-06 12:50:00,29.5,11.8,30.39,SE,137,3.0,5.4,47,0.00,,,-99.99,FreeWX 2.04,2013-03-06 18:50:00,
2013-03-06 12:55:00,28.9,10.8,30.39,SE,139,2.0,5.4,46,0.00,,,-99.99,FreeWX 2.04,2013-03-06 18:55:00,
2013-03-06 13:00:00,29.5,11.3,30.39,SSE,151,3.0,7.4,46,0.00,,,-99.99,FreeWX 2.04,2013-03-06 19:00:00,
2013-03-06 13:05:00,29.3,10.6,30.39,SE,129,4.0,5.8,45,0.00,,,-99.99,FreeWX 2.04,2013-03-06 19:05:00,
2013-03-06 13:10:00,29.7,11.5,30.39,NNE,14,3.0,4.9,46,0.00,,,-99.99,FreeWX 2.04,2013-03-06 19:10:00,
2013-03-06 13:15:00,29.3,10.6,30.39,NNE,23,2.0,5.4,45,0.00,,,-99.99,FreeWX 2.04,2013-03-06 19:15:00,
2013-03-06 13:20:00,28.6,10.4,30.36,NNE,24,2.0,4.5,46,0.00,,,-99.99,FreeWX 2.04,2013-03-06 19:20:00,
2013-03-06 13:25:00,28.6,10.4,30.36,NNE,32,3.0,5.8,46,0.00,,,-99.99,FreeWX 2.04,2013-03-06 19:25:00,
2013-03-06 13:30:00,28.4,10.2,30.36,ENE,76,2.0,5.4,46,0.00,,,-99.99,FreeWX 2.04,2013-03-06 19:30:00,
2013-03-06 13:35:00,28.6,10.4,30.36,ESE,110,1.0,4.9,46,0.00,,,-99.99,FreeWX 2.04,2013-03-06 19:35:00,
2013-03-06 13:40:00,28.8,11.1,30.36,ESE,111,2.0,6.7,47,0.00,,,-99.99,FreeWX 2.04,2013-03-06 19:40:00,
2013-03-06 13:45:00,28.4,10.2,30.36,SSE,154,3.0,6.7,46,0.00,,,-99.99,FreeWX 2.04,2013-03-06 19:45:00,
2013-03-06 13:50:00,28.4,10.2,30.36,SSW,210,3.0,5.4,46,0.00,,,-99.99,FreeWX 2.04,2013-03-06 19:50:00,
2013-03-06 13:55:00,28.8,11.1,30.36,SSW,212,4.0,5.4,47,0.00,,,-99.99,FreeWX 2.04,2013-03-06 19:55:00,
2013-03-06 14:00:00,29.3,12.0,30.36,SSW,203,3.0,4.9,48,0.00,,,-99.99,FreeWX 2.04,2013-03-06 20:00:00,
2013-03-06 14:05:00,29.3,12.0,30.36,South,191,2.0,6.3,48,0.00,,,-99.99,FreeWX 2.04,2013-03-06 20:05:00,
2013-03-06 14:10:00,29.3,12.0,30.36,SSE,149,3.0,5.8,48,0.00,,,-99.99,FreeWX 2.04,2013-03-06 20:10:00,
2013-03-06 14:15:00,29.1,11.8,30.36,ESE,112,3.0,5.8,48,0.00,,,-99.99,FreeWX 2.04,2013-03-06 20:15:00,
2013-03-06 14:20:00,28.8,11.7,30.36,East,98,4.0,5.8,48,0.00,,,-99.99,FreeWX 2.04,2013-03-06 20:20:00,
2013-03-06 14:25:00,28.8,12.0,30.36,East,90,4.0,4.5,49,0.00,,,-99.99,FreeWX 2.04,2013-03-06 20:25:00,
2013-03-06 14:30:00,29.3,12.6,30.36,East,90,4.0,5.4,49,0.00,,,-99.99,FreeWX 2.04,2013-03-06 20:30:00,
2013-03-06 14:35:00,30.0,13.3,30.36,East,91,4.0,4.9,49,0.00,,,-99.99,FreeWX 2.04,2013-03-06 20:35:00,
2013-03-06 14:40:00,30.2,12.9,30.36,East,91,3.0,4.9,48,0.00,,,-99.99,FreeWX 2.04,2013-03-06 20:40:00,
2013-03-06 14:45:00,30.4,13.1,30.36,East,91,3.0,4.9,48,0.00,,,-99.99,FreeWX 2.04,2013-03-06 20:45:00,
2013-03-06 14:50:00,30.2,12.4,30.36,East,91,3.0,4.5,47,0.00,,,-99.99,FreeWX 2.04,2013-03-06 20:50:00,
2013-03-06 14:55:00,30.2,12.4,30.36,East,91,3.0,4.5,47,0.00,,,-99.99,FreeWX 2.04,2013-03-06 20:55:00,
2013-03-06 15:00:00,30.2,12.4,30.36,East,91,2.0,3.6,47,0.00,,,-99.99,FreeWX 2.04,2013-03-06 21:00:00,
2013-03-06 15:05:00,30.0,12.2,30.33,East,91,2.0,3.6,47,0.00,,,-99.99,FreeWX 2.04,2013-03-06 21:05:00,
2013-03-06 15:10:00,29.8,12.0,30.33,East,91,2.0,4.9,47,0.00,,,-99.99,FreeWX 2.04,2013-03-06 21:10:00,
2013-03-06 15:15:00,29.5,11.8,30.33,East,91,3.0,4.0,47,0.00,,,-99.99,FreeWX 2.04,2013-03-06 21:15:00,
2013-03-06 15:20:00,29.1,11.5,30.33,East,91,3.0,4.0,47,0.00,,,-99.99,FreeWX 2.04,2013-03-06 21:20:00,
2013-03-06 15:25:00,28.6,10.9,30.33,East,91,3.0,4.0,47,0.00,,,-99.99,FreeWX 2.04,2013-03-06 21:25:00,
2013-03-06 15:30:00,28.2,10.6,30.33,East,91,1.0,0.0,47,0.00,,,-99.99,FreeWX 2.04,2013-03-06 21:30:00,
2013-03-06 15:35:00,28.4,10.8,30.33,North,-999,0.0,4.0,47,0.00,,,-99.99,FreeWX 2.04,2013-03-06 21:35:00,
2013-03-06 15:40:00,28.6,11.5,30.33,East,91,2.0,4.0,48,0.00,,,-99.99,FreeWX 2.04,2013-03-06 21:40:00,
2013-03-06 15:45:00,28.2,10.6,30.33,East,91,1.0,2.7,47,0.00,,,-99.99,FreeWX 2.04,2013-03-06 21:45:00,
2013-03-06 15:50:00,27.7,10.0,30.33,North,-999,0.0,0.0,47,0.00,,,-99.99,FreeWX 2.04,2013-03-06 21:50:00,
2013-03-06 15:55:00,27.1,9.7,30.33,North,-999,0.0,0.0,47,0.00,,,-99.99,FreeWX 2.04,2013-03-06 21:55:00,
2013-03-06 16:00:00,26.4,9.0,30.33,North,-999,0.0,0.0,47,0.00,,,-99.99,FreeWX 2.04,2013-03-06 22:00:00,
2013-03-06 16:05:00,26.1,9.1,30.33,North,-999,0.0,3.6,48,0.00,,,-99.99,FreeWX 2.04,2013-03-06 22:05:00,
2013-03-06 16:10:00,25.5,8.6,30.33,East,91,1.0,3.6,48,0.00,,,-99.99,FreeWX 2.04,2013-03-06 22:10:00,
2013-03-06 16:15:00,25.2,8.2,30.33,East,91,1.0,3.6,48,0.00,,,-99.99,FreeWX 2.04,2013-03-06 22:15:00,
2013-03-06 16:20:00,24.6,7.7,30.33,East,91,1.0,4.0,48,0.00,,,-99.99,FreeWX 2.04,2013-03-06 22:20:00,
2013-03-06 16:25:00,24.3,7.5,30.33,East,91,2.0,3.6,48,0.00,,,-99.99,FreeWX 2.04,2013-03-06 22:25:00,
2013-03-06 16:30:00,23.9,7.5,30.33,East,91,1.0,3.6,49,0.00,,,-99.99,FreeWX 2.04,2013-03-06 22:30:00,
2013-03-06 16:35:00,23.5,7.2,30.33,North,-999,0.0,3.1,49,0.00,,,-99.99,FreeWX 2.04,2013-03-06 22:35:00,
2013-03-06 16:40:00,23.4,7.0,30.33,North,-999,0.0,0.0,49,0.00,,,-99.99,FreeWX 2.04,2013-03-06 22:40:00,
2013-03-06 16:45:00,23.0,7.2,30.33,North,-999,0.0,0.0,50,0.00,,,-99.99,FreeWX 2.04,2013-03-06 22:45:00,
2013-03-06 16:50:00,22.8,7.0,30.33,North,-999,0.0,0.0,50,0.00,,,-99.99,FreeWX 2.04,2013-03-06 22:50:00,
2013-03-06 16:55:00,22.8,7.0,30.33,North,-999,0.0,0.0,50,0.00,,,-99.99,FreeWX 2.04,2013-03-06 22:55:00,
2013-03-06 17:00:00,22.8,7.5,30.33,North,-999,0.0,0.0,51,0.00,,,-99.99,FreeWX 2.04,2013-03-06 23:00:00,
2013-03-06 17:05:00,22.8,7.5,30.33,North,-999,0.0,0.0,51,0.00,,,-99.99,FreeWX 2.04,2013-03-06 23:05:00,
2013-03-06 17:10:00,22.6,7.3,30.33,North,-999,0.0,0.0,51,0.00,,,-99.99,FreeWX 2.04,2013-03-06 23:10:00,
2013-03-06 17:15:00,22.3,7.3,30.33,North,-999,0.0,0.0,52,0.00,,,-99.99,FreeWX 2.04,2013-03-06 23:15:00,
2013-03-06 17:20:00,22.3,7.3,30.33,North,-999,0.0,3.6,52,0.00,,,-99.99,FreeWX 2.04,2013-03-06 23:20:00,
2013-03-06 17:25:00,22.3,7.3,30.33,East,88,1.0,4.5,52,0.00,,,-99.99,FreeWX 2.04,2013-03-06 23:25:00,
2013-03-06 17:30:00,22.6,7.7,30.33,ENE,71,2.0,4.9,52,0.00,,,-99.99,FreeWX 2.04,2013-03-06 23:30:00,
2013-03-06 17:35:00,22.6,8.1,30.33,NE,49,2.0,6.3,53,0.00,,,-99.99,FreeWX 2.04,2013-03-06 23:35:00,
2013-03-06 17:40:00,22.6,8.1,30.33,NNE,30,2.0,5.4,53,0.00,,,-99.99,FreeWX 2.04,2013-03-06 23:40:00,
2013-03-06 17:45:00,22.6,7.7,30.33,NNE,19,1.0,4.0,52,0.00,,,-99.99,FreeWX 2.04,2013-03-06 23:45:00,
2013-03-06 17:50:00,22.5,7.5,30.33,North,-999,0.0,3.6,52,0.00,,,-99.99,FreeWX 2.04,2013-03-06 23:50:00,
2013-03-06 17:55:00,22.1,7.2,30.33,North,-999,0.0,3.6,52,0.00,,,-99.99,FreeWX 2.04,2013-03-06 23:55:00,
2013-03-06 18:00:00,21.9,7.5,30.33,North,-999,0.0,0.0,53,0.00,,,-99.99,FreeWX 2.04,2013-03-07 00:00:00,
2013-03-06 18:05:00,21.9,7.5,30.33,North,-999,0.0,0.0,53,0.00,,,-99.99,FreeWX 2.04,2013-03-07 00:05:00,
2013-03-06 18:10:00,21.6,7.2,30.33,North,-999,0.0,0.0,53,0.00,,,-99.99,FreeWX 2.04,2013-03-07 00:10:00,
2013-03-06 18:15:00,21.2,6.8,30.33,North,-999,0.0,0.0,53,0.00,,,-99.99,FreeWX 2.04,2013-03-07 00:15:00,
2013-03-06 18:20:00,20.8,6.4,30.33,North,-999,0.0,0.0,53,0.00,,,-99.99,FreeWX 2.04,2013-03-07 00:20:00,
2013-03-06 18:25:00,20.5,6.1,30.33,North,-999,0.0,0.0,53,0.00,,,-99.99,FreeWX 2.04,2013-03-07 00:25:00,
2013-03-06 18:30:00,20.1,6.3,30.33,North,-999,0.0,0.0,54,0.00,,,-99.99,FreeWX 2.04,2013-03-07 00:30:00,
2013-03-06 18:35:00,19.8,5.9,30.33,North,-999,0.0,0.0,54,0.00,,,-99.99,FreeWX 2.04,2013-03-07 00:35:00,
2013-03-06 18:40:00,19.4,5.5,30.33,North,-999,0.0,0.0,54,0.00,,,-99.99,FreeWX 2.04,2013-03-07 00:40:00,
2013-03-06 18:45:00,19.0,5.2,30.33,North,-999,0.0,0.0,54,0.00,,,-99.99,FreeWX 2.04,2013-03-07 00:45:00,
2013-03-06 18:50:00,18.9,5.0,30.33,North,-999,0.0,0.0,54,0.00,,,-99.99,FreeWX 2.04,2013-03-07 00:50:00,
2013-03-06 18:55:00,18.5,5.0,30.33,North,-999,0.0,0.0,55,0.00,,,-99.99,FreeWX 2.04,2013-03-07 00:55:00,
2013-03-06 19:00:00,18.1,4.6,30.33,North,-999,0.0,0.0,55,0.00,,,-99.99,FreeWX 2.04,2013-03-07 01:00:00,
2013-03-06 19:05:00,17.8,4.5,30.36,North,-999,0.0,0.0,55,0.00,,,-99.99,FreeWX 2.04,2013-03-07 01:05:00,
2013-03-06 19:10:00,17.4,4.1,30.36,North,-999,0.0,0.0,55,0.00,,,-99.99,FreeWX 2.04,2013-03-07 01:10:00,
2013-03-06 19:15:00,17.1,3.7,30.36,North,-999,0.0,0.0,55,0.00,,,-99.99,FreeWX 2.04,2013-03-07 01:15:00,
2013-03-06 19:20:00,16.7,3.7,30.36,North,-999,0.0,0.0,56,0.00,,,-99.99,FreeWX 2.04,2013-03-07 01:20:00,
2013-03-06 19:25:00,16.5,3.6,30.36,North,-999,0.0,0.0,56,0.00,,,-99.99,FreeWX 2.04,2013-03-07 01:25:00,
2013-03-06 19:30:00,16.0,3.0,30.36,North,-999,0.0,0.0,56,0.00,,,-99.99,FreeWX 2.04,2013-03-07 01:30:00,
2013-03-06 19:35:00,15.6,2.8,30.36,North,-999,0.0,0.0,56,0.00,,,-99.99,FreeWX 2.04,2013-03-07 01:35:00,
2013-03-06 19:40:00,15.1,2.3,30.36,North,-999,0.0,0.0,56,0.00,,,-99.99,FreeWX 2.04,2013-03-07 01:40:00,
2013-03-06 19:45:00,14.7,2.3,30.36,North,-999,0.0,0.0,57,0.00,,,-99.99,FreeWX 2.04,2013-03-07 01:45:00,
2013-03-06 19:50:00,14.5,2.1,30.36,North,-999,0.0,0.0,57,0.00,,,-99.99,FreeWX 2.04,2013-03-07 01:50:00,
2013-03-06 19:55:00,14.0,1.6,30.36,North,-999,0.0,0.0,57,0.00,,,-99.99,FreeWX 2.04,2013-03-07 01:55:00,
2013-03-06 20:00:00,13.1,-99.9,30.36,North,-999,0.0,0.0,-999,0.00,,,-99.99,FreeWX 2.04,2013-03-07 02:00:00,
2013-03-06 20:05:00,12.7,-99.9,30.36,North,-999,0.0,0.0,-999,0.00,,,-99.99,FreeWX 2.04,2013-03-07 02:05:00,
2013-03-06 20:10:00,12.6,-99.9,30.36,North,-999,0.0,0.0,-999,0.00,,,-99.99,FreeWX 2.04,2013-03-07 02:10:00,
2013-03-06 20:15:00,12.4,-99.9,30.36,North,-999,0.0,0.0,-999,0.00,,,-99.99,FreeWX 2.04,2013-03-07 02:15:00,
2013-03-06 20:20:00,12.0,-99.9,30.36,North,-999,0.0,0.0,-999,0.00,,,-99.99,FreeWX 2.04,2013-03-07 02:20:00,
2013-03-06 20:25:00,11.8,-99.9,30.36,North,-999,0.0,0.0,-999,0.00,,,-99.99,FreeWX 2.04,2013-03-07 02:25:00,
2013-03-06 20:30:00,11.5,-99.9,30.36,North,-999,0.0,0.0,-999,0.00,,,-99.99,FreeWX 2.04,2013-03-07 02:30:00,
2013-03-06 20:35:00,11.1,-99.9,30.36,North,-999,0.0,0.0,-999,0.00,,,-99.99,FreeWX 2.04,2013-03-07 02:35:00,
2013-03-06 20:40:00,10.9,-99.9,30.36,North,-999,0.0,0.0,-999,0.00,,,-99.99,FreeWX 2.04,2013-03-07 02:40:00,
2013-03-06 20:45:00,10.6,-99.9,30.36,North,-999,0.0,0.0,-999,0.00,,,-99.99,FreeWX 2.04,2013-03-07 02:45:00,
2013-03-06 20:50:00,10.4,-99.9,30.33,North,-999,0.0,0.0,-999,0.00,,,-99.99,FreeWX 2.04,2013-03-07 02:50:00,
2013-03-06 20:55:00,10.2,-99.9,30.33,North,-999,0.0,0.0,-999,0.00,,,-99.99,FreeWX 2.04,2013-03-07 02:55:00,
2013-03-06 21:00:00,10.0,-99.9,30.33,North,-999,0.0,0.0,-999,0.00,,,-99.99,FreeWX 2.04,2013-03-07 03:00:00,
2013-03-06 21:05:00,10.0,-99.9,30.33,North,-999,0.0,0.0,-999,0.00,,,-99.99,FreeWX 2.04,2013-03-07 03:05:00,
2013-03-06 21:10:00,9.9,-99.9,30.33,North,-999,0.0,0.0,-999,0.00,,,-99.99,FreeWX 2.04,2013-03-07 03:10:00,
2013-03-06 21:15:00,10.0,-99.9,30.33,North,-999,0.0,0.0,-999,0.00,,,-99.99,FreeWX 2.04,2013-03-07 03:15:00,
2013-03-06 21:20:00,10.2,-99.9,30.33,North,-999,0.0,0.0,-999,0.00,,,-99.99,FreeWX 2.04,2013-03-07 03:20:00,
2013-03-06 21:25:00,10.4,-99.9,30.33,North,-999,0.0,0.0,-999,0.00,,,-99.99,FreeWX 2.04,2013-03-07 03:25:00,
2013-03-06 21:30:00,10.2,-99.9,30.33,North,-999,0.0,0.0,-999,0.00,,,-99.99,FreeWX 2.04,2013-03-07 03:30:00,
2013-03-06 21:35:00,9.9,-99.9,30.33,North,-999,0.0,0.0,-999,0.00,,,-99.99,FreeWX 2.04,2013-03-07 03:35:00,
2013-03-06 21:40:00,9.3,-99.9,30.33,North,-999,0.0,0.0,-999,0.00,,,-99.99,FreeWX 2.04,2013-03-07 03:40:00,
2013-03-06 21:45:00,9.1,-99.9,30.33,North,-999,0.0,0.0,-999,0.00,,,-99.99,FreeWX 2.04,2013-03-07 03:45:00,
2013-03-06 21:50:00,9.3,-99.9,30.33,North,-999,0.0,0.0,-999,0.00,,,-99.99,FreeWX 2.04,2013-03-07 03:50:00,
2013-03-06 21:55:00,9.1,-99.9,30.33,North,-999,0.0,0.0,-999,0.00,,,-99.99,FreeWX 2.04,2013-03-07 03:55:00,
2013-03-06 22:00:00,9.1,-99.9,30.33,North,-999,0.0,0.0,-999,0.00,,,-99.99,FreeWX 2.04,2013-03-07 04:00:00,
2013-03-06 22:05:00,9.3,-99.9,30.33,North,-999,0.0,3.1,-999,0.00,,,-99.99,FreeWX 2.04,2013-03-07 04:05:00,
2013-03-06 22:10:00,9.5,-99.9,30.33,North,-999,0.0,0.0,-999,0.00,,,-99.99,FreeWX 2.04,2013-03-07 04:10:00,
2013-03-06 22:15:00,9.7,-99.9,30.33,North,-999,0.0,0.0,-999,0.00,,,-99.99,FreeWX 2.04,2013-03-07 04:15:00,
2013-03-06 22:20:00,9.9,-99.9,30.33,North,-999,0.0,0.0,-999,0.00,,,-99.99,FreeWX 2.04,2013-03-07 04:20:00,
2013-03-06 22:25:00,10.0,-99.9,30.33,North,-999,0.0,0.0,-999,0.00,,,-99.99,FreeWX 2.04,2013-03-07 04:25:00,
2013-03-06 22:30:00,9.9,-99.9,30.33,North,-999,0.0,0.0,-999,0.00,,,-99.99,FreeWX 2.04,2013-03-07 04:30:00,
2013-03-06 22:35:00,9.5,-99.9,30.33,North,-999,0.0,3.1,-999,0.00,,,-99.99,FreeWX 2.04,2013-03-07 04:35:00,
2013-03-06 22:40:00,9.1,-99.9,30.33,North,-999,0.0,5.8,-999,0.00,,,-99.99,FreeWX 2.04,2013-03-07 04:40:00,
2013-03-06 22:45:00,8.4,-99.9,30.33,North,-999,0.0,7.8,-999,0.00,,,-99.99,FreeWX 2.04,2013-03-07 04:45:00,
2013-03-06 22:50:00,7.2,-99.9,30.36,North,-999,0.0,0.0,-999,0.00,,,-99.99,FreeWX 2.04,2013-03-07 04:50:00,
2013-03-06 22:55:00,6.6,-99.9,30.36,North,-999,0.0,0.0,-999,0.00,,,-99.99,FreeWX 2.04,2013-03-07 04:55:00,
2013-03-06 23:06:00,6.6,-99.9,30.36,North,-999,0.0,0.0,-999,0.00,,,-99.99,FreeWX 2.04,2013-03-07 05:06:00,
2013-03-06 23:11:00,6.8,-99.9,30.36,North,-999,0.0,0.0,-999,0.00,,,-99.99,FreeWX 2.04,2013-03-07 05:11:00,
2013-03-06 23:16:00,7.0,-99.9,30.36,North,-999,0.0,0.0,-999,0.00,,,-99.99,FreeWX 2.04,2013-03-07 05:16:00,
2013-03-06 23:21:00,7.2,-99.9,30.36,North,-999,0.0,0.0,-999,0.00,,,-99.99,FreeWX 2.04,2013-03-07 05:21:00,
2013-03-06 23:26:00,7.3,-99.9,30.36,North,-999,0.0,0.0,-999,0.00,,,-99.99,FreeWX 2.04,2013-03-07 05:26:00,
2013-03-06 23:31:00,7.5,-99.9,30.36,North,-999,0.0,0.0,-999,0.00,,,-99.99,FreeWX 2.04,2013-03-07 05:31:00,
2013-03-06 23:36:00,7.2,-99.9,30.36,North,-999,0.0,0.0,-999,0.00,,,-99.99,FreeWX 2.04,2013-03-07 05:36:00,
2013-03-06 23:41:00,7.0,-99.9,30.36,North,-999,0.0,0.0,-999,0.00,,,-99.99,FreeWX 2.04,2013-03-07 05:41:00,
2013-03-06 23:46:00,6.8,-99.9,30.36,North,-999,0.0,3.1,-999,0.00,,,-99.99,FreeWX 2.04,2013-03-07 05:46:00,
2013-03-06 23:51:00,6.4,-99.9,30.33,North,-999,0.0,2.7,-999,0.00,,,-99.99,FreeWX 2.04,2013-03-07 05:51:00,
2013-03-06 23:56:00,6.3,-99.9,30.33,North,-999,0.0,0.0,-999,0.00,,,-99.99,FreeWX 2.04,2013-03-07 05:56:00,